createdAt,value
2022-12-24T00:01:06.644Z,46.37
2022-12-24T00:03:35.078Z,51.37
2022-12-24T00:06:10.445Z,46.63
2022-12-24T00:08:37.654Z,47.90
2022-12-24T00:11:04.757Z,50.40
2022-12-24T00:13:32.059Z,45.37
2022-12-24T00:15:59.241Z,49.23
2022-12-24T00:18:26.782Z,48.57
2022-12-24T00:20:54.069Z,43.67
2022-12-24T00:23:21.612Z,45.90
2022-12-24T00:25:48.741Z,41.33
2022-12-24T00:28:17.141Z,40.30
2022-12-24T00:30:44.808Z,42.33
2022-12-24T00:33:12.055Z,41.23
2022-12-24T00:35:39.961Z,47.10
2022-12-24T00:38:08.567Z,41.27
2022-12-24T00:40:36.051Z,43.83
2022-12-24T00:43:04.073Z,44.53
2022-12-24T00:45:31.019Z,41.87
2022-12-24T00:47:58.283Z,41.50
2022-12-24T00:50:25.900Z,44.63
2022-12-24T00:52:53.118Z,38.67
2022-12-24T00:55:20.161Z,43.07
2022-12-24T00:57:47.426Z,40.47
2022-12-24T01:00:17.477Z,45.47
2022-12-24T01:02:44.994Z,46.07
2022-12-24T01:05:12.680Z,41.80
2022-12-24T01:07:44.598Z,45.10
2022-12-24T01:10:16.757Z,45.33
2022-12-24T01:12:45.372Z,50.40
2022-12-24T01:15:14.085Z,52.33
2022-12-24T01:17:41.712Z,38.80
2022-12-24T01:20:13.109Z,43.67
2022-12-24T01:22:40.428Z,47.73
2022-12-24T01:25:07.876Z,44.27
2022-12-24T01:27:35.112Z,49.10
2022-12-24T01:30:02.135Z,50.23
2022-12-24T01:32:29.404Z,42.27
2022-12-24T01:34:56.336Z,38.63
2022-12-24T01:37:24.041Z,51.53
2022-12-24T01:39:51.037Z,50.47
2022-12-24T01:42:41.831Z,58.20
2022-12-24T01:45:36.861Z,46.47
2022-12-24T01:48:05.365Z,45.50
2022-12-24T01:50:32.284Z,50.83
2022-12-24T01:52:59.861Z,56.50
2022-12-24T01:55:27.026Z,46.50
2022-12-24T01:57:58.575Z,52.13
2022-12-24T02:00:25.577Z,51.50
2022-12-24T02:02:54.263Z,52.47
2022-12-24T02:05:21.481Z,53.87
2022-12-24T02:07:49.406Z,48.33
2022-12-24T02:10:16.877Z,50.03
2022-12-24T02:12:45.854Z,49.53
2022-12-24T02:15:15.065Z,51.43
2022-12-24T02:18:19.380Z,46.87
2022-12-24T02:21:23.556Z,48.20
2022-12-24T02:23:53.514Z,52.10
2022-12-24T02:26:51.120Z,47.13
2022-12-24T02:29:24.045Z,44.57
2022-12-24T02:32:02.545Z,51.60
2022-12-24T02:34:38.857Z,54.87
2022-12-24T02:37:17.694Z,89.27
2022-12-24T02:40:01.205Z,56.40
2022-12-24T02:42:36.255Z,170.17
2022-12-24T02:45:08.155Z,188.20
2022-12-24T02:47:36.206Z,119.17
2022-12-24T02:50:07.008Z,208.90
2022-12-24T02:52:36.842Z,164.33
2022-12-24T02:55:45.373Z,197.73
2022-12-24T02:58:30.856Z,137.20
2022-12-24T03:01:17.395Z,67.37
2022-12-24T03:04:18.535Z,132.77
2022-12-24T03:06:45.805Z,118.00
2022-12-24T03:09:19.596Z,155.23
2022-12-24T03:11:55.313Z,63.73
2022-12-24T03:14:23.824Z,156.33
2022-12-24T03:16:51.371Z,137.50
2022-12-24T03:19:20.377Z,133.50
2022-12-24T03:21:49.828Z,121.17
2022-12-24T03:24:16.884Z,148.50
2022-12-24T03:26:45.924Z,154.03
2022-12-24T03:29:13.132Z,134.83
2022-12-24T03:31:46.032Z,91.80
2022-12-24T03:34:14.066Z,126.70
2022-12-24T03:36:41.686Z,155.37
2022-12-24T03:39:09.754Z,134.53
2022-12-24T03:41:38.018Z,119.40
2022-12-24T03:44:04.955Z,110.87
2022-12-24T03:46:32.253Z,97.07
2022-12-24T03:48:59.315Z,107.00
2022-12-24T03:51:26.713Z,74.70
2022-12-24T03:53:54.569Z,98.83
2022-12-24T03:56:22.645Z,75.37
2022-12-24T03:58:49.754Z,78.80
2022-12-24T04:01:17.927Z,71.03
2022-12-24T04:03:45.634Z,82.43
2022-12-24T04:06:15.971Z,70.50
2022-12-24T04:08:43.015Z,80.37
2022-12-24T04:11:16.409Z,57.70
2022-12-24T04:13:43.734Z,66.47
2022-12-24T04:16:13.575Z,62.33
2022-12-24T04:18:42.061Z,53.70
2022-12-24T04:21:10.227Z,58.13
2022-12-24T04:23:38.961Z,61.87
2022-12-24T04:26:08.941Z,52.43
2022-12-24T04:28:36.915Z,49.07
2022-12-24T04:31:10.499Z,52.57
2022-12-24T04:33:37.984Z,49.67
2022-12-24T04:36:06.829Z,57.20
2022-12-24T04:38:34.616Z,48.67
2022-12-24T04:41:24.401Z,57.87
2022-12-24T04:43:53.979Z,51.30
2022-12-24T04:46:24.082Z,43.67
2022-12-24T04:48:52.561Z,48.40
2022-12-24T04:51:20.836Z,52.13
2022-12-24T04:53:47.901Z,50.50
2022-12-24T04:56:21.618Z,46.33
2022-12-24T04:58:49.157Z,53.33
2022-12-24T05:01:23.024Z,51.83
2022-12-24T05:03:51.237Z,52.03
2022-12-24T05:06:22.286Z,53.60
2022-12-24T05:08:49.930Z,57.07
2022-12-24T05:11:17.359Z,52.37
2022-12-24T05:13:47.424Z,62.13
2022-12-24T05:16:17.440Z,55.73
2022-12-24T05:18:44.423Z,55.27
2022-12-24T05:21:15.073Z,55.97
2022-12-24T05:24:00.615Z,48.27
2022-12-24T05:26:53.241Z,45.20
2022-12-24T05:29:20.667Z,45.17
2022-12-24T05:31:48.290Z,45.97
2022-12-24T05:34:16.707Z,43.07
2022-12-24T05:36:45.181Z,47.70
2022-12-24T05:39:17.096Z,42.17
2022-12-24T05:41:45.313Z,45.07
2022-12-24T05:44:12.395Z,42.20
2022-12-24T05:46:39.869Z,39.10
2022-12-24T05:49:06.849Z,40.37
2022-12-24T05:51:34.261Z,42.03
2022-12-24T05:54:01.360Z,40.93
2022-12-24T05:56:28.619Z,38.07
2022-12-24T05:58:55.755Z,40.27
2022-12-24T06:01:23.389Z,39.13
2022-12-24T06:03:50.988Z,46.23
2022-12-24T06:06:25.520Z,42.70
2022-12-24T06:08:53.693Z,41.93
2022-12-24T06:11:26.081Z,37.23
2022-12-24T06:13:54.140Z,41.53
2022-12-24T06:16:22.519Z,39.83
2022-12-24T06:18:49.927Z,42.70
2022-12-24T06:21:17.911Z,35.97
2022-12-24T06:23:45.785Z,41.17
2022-12-24T06:26:16.400Z,39.87
2022-12-24T06:28:44.443Z,39.00
2022-12-24T06:31:20.729Z,39.30
2022-12-24T06:33:48.754Z,37.27
2022-12-24T06:36:24.277Z,38.67
2022-12-24T06:38:53.520Z,36.70
2022-12-24T06:41:20.818Z,34.70
2022-12-24T06:43:50.114Z,40.70
2022-12-24T06:46:18.673Z,36.47
2022-12-24T06:48:46.459Z,37.97
2022-12-24T06:51:15.124Z,37.73
2022-12-24T06:53:42.519Z,39.57
2022-12-24T06:56:13.010Z,37.80
2022-12-24T06:58:41.163Z,39.27
2022-12-24T07:01:11.287Z,36.23
2022-12-24T07:03:38.702Z,37.07
2022-12-24T07:06:06.326Z,39.40
2022-12-24T07:08:34.151Z,37.20
2022-12-24T07:11:01.790Z,38.37
2022-12-24T07:13:29.379Z,40.10
2022-12-24T07:16:03.995Z,39.33
2022-12-24T07:18:31.296Z,37.13
2022-12-24T07:20:58.606Z,40.63
2022-12-24T07:23:25.844Z,36.57
2022-12-24T07:25:53.095Z,36.47
2022-12-24T07:28:25.725Z,37.23
2022-12-24T07:30:58.981Z,34.77
2022-12-24T07:33:26.512Z,38.40
2022-12-24T07:36:01.197Z,42.80
2022-12-24T07:38:28.754Z,41.07
2022-12-24T07:40:57.078Z,37.83
2022-12-24T07:43:24.847Z,41.97
2022-12-24T07:45:55.365Z,43.30
2022-12-24T07:48:22.788Z,38.67
2022-12-24T07:50:50.987Z,35.93
2022-12-24T07:53:18.285Z,36.90
2022-12-24T07:55:45.598Z,31.70
2022-12-24T07:58:12.580Z,36.00
2022-12-24T08:00:39.895Z,35.13
2022-12-24T08:03:06.922Z,34.70
2022-12-24T08:05:35.795Z,40.03
2022-12-24T08:08:03.107Z,38.67
2022-12-24T08:10:30.380Z,35.07
2022-12-24T08:12:57.338Z,33.90
2022-12-24T08:15:24.583Z,36.60
2022-12-24T08:17:51.556Z,30.90
2022-12-24T08:20:19.018Z,39.03
2022-12-24T08:22:46.035Z,33.77
2022-12-24T08:25:13.383Z,34.63
2022-12-24T08:27:40.352Z,33.70
2022-12-24T08:30:08.284Z,36.37
2022-12-24T08:32:35.269Z,33.83
2022-12-24T08:35:02.503Z,36.10
2022-12-24T08:37:29.448Z,31.73
2022-12-24T08:39:56.629Z,33.37
2022-12-24T08:42:23.697Z,33.23
2022-12-24T08:44:50.907Z,37.00
2022-12-24T08:47:17.876Z,32.47
2022-12-24T08:49:45.260Z,32.40
2022-12-24T08:52:12.210Z,34.03
2022-12-24T08:54:39.589Z,26.97
2022-12-24T08:57:06.577Z,32.03
2022-12-24T08:59:33.775Z,30.17
2022-12-24T09:02:01.813Z,29.07
2022-12-24T09:04:29.184Z,28.03
2022-12-24T09:06:56.132Z,27.37
2022-12-24T09:09:23.415Z,29.50
2022-12-24T09:11:50.388Z,27.77
2022-12-24T09:14:17.555Z,29.50
2022-12-24T09:16:44.601Z,32.93
2022-12-24T09:19:11.937Z,32.53
2022-12-24T09:21:38.839Z,30.90
2022-12-24T09:24:06.514Z,26.30
2022-12-24T09:26:33.577Z,29.43
2022-12-24T09:29:01.416Z,28.10
2022-12-24T09:31:28.935Z,25.60
2022-12-24T09:33:56.222Z,27.80
2022-12-24T09:36:23.199Z,27.10
2022-12-24T09:38:51.289Z,27.70
2022-12-24T09:41:59.258Z,27.97
2022-12-24T09:44:51.605Z,21.93
2022-12-24T09:47:41.298Z,22.93
2022-12-24T09:50:42.071Z,22.87
2022-12-24T09:53:37.019Z,20.87
2022-12-24T09:56:18.778Z,24.80
2022-12-24T09:58:49.582Z,27.07
2022-12-24T10:01:19.091Z,22.03
2022-12-24T10:03:46.867Z,22.37
2022-12-24T10:06:17.917Z,22.63
2022-12-24T10:08:51.356Z,21.30
2022-12-24T10:11:51.365Z,29.77
2022-12-24T10:14:33.372Z,20.53
2022-12-24T10:17:24.783Z,21.43
2022-12-24T10:20:39.107Z,22.30
2022-12-24T10:23:28.651Z,21.17
2022-12-24T10:26:27.353Z,20.73
2022-12-24T10:29:00.752Z,21.70
2022-12-24T10:31:32.207Z,22.80
2022-12-24T10:34:05.653Z,24.10
2022-12-24T10:36:33.240Z,18.17
2022-12-24T10:39:00.722Z,22.13
2022-12-24T10:41:29.465Z,20.37
2022-12-24T10:43:57.590Z,20.83
2022-12-24T10:46:33.124Z,21.17
2022-12-24T10:49:06.340Z,20.53
2022-12-24T10:51:40.575Z,19.57
2022-12-24T10:54:26.191Z,19.27
2022-12-24T10:56:59.427Z,20.57
2022-12-24T10:59:50.508Z,22.57
2022-12-24T11:02:32.632Z,31.27
2022-12-24T11:05:02.029Z,25.67
2022-12-24T11:07:31.151Z,26.90
2022-12-24T11:10:08.230Z,27.97
2022-12-24T11:13:05.864Z,28.37
2022-12-24T11:15:35.386Z,22.87
2022-12-24T11:18:13.700Z,20.83
2022-12-24T11:20:41.800Z,21.97
2022-12-24T11:23:18.474Z,22.50
2022-12-24T11:25:51.247Z,29.10
2022-12-24T11:28:30.562Z,32.70
2022-12-24T11:31:18.037Z,28.03
2022-12-24T11:33:51.075Z,27.80
2022-12-24T11:36:23.173Z,27.90
2022-12-24T11:38:55.446Z,27.10
2022-12-24T11:41:23.844Z,26.33
2022-12-24T11:43:59.289Z,27.30
2022-12-24T11:46:36.731Z,28.70
2022-12-24T11:49:30.752Z,25.00
2022-12-24T11:52:09.955Z,25.97
2022-12-24T11:55:10.282Z,30.03
2022-12-24T11:57:54.807Z,37.93
2022-12-24T12:00:21.803Z,42.80
2022-12-24T12:02:51.580Z,31.53
2022-12-24T12:05:21.358Z,37.70
2022-12-24T12:07:53.241Z,36.27
2022-12-24T12:10:30.411Z,34.43
2022-12-24T12:13:15.328Z,27.60
2022-12-24T12:16:00.251Z,32.10
2022-12-24T12:18:38.269Z,29.03
2022-12-24T12:21:10.101Z,30.40
2022-12-24T12:23:44.584Z,30.07
2022-12-24T12:26:26.351Z,25.93
2022-12-24T12:29:02.294Z,29.77
2022-12-24T12:31:35.524Z,30.33
2022-12-24T12:34:24.457Z,29.93
2022-12-24T12:36:53.684Z,32.10
2022-12-24T12:39:20.923Z,30.60
2022-12-24T12:41:59.678Z,29.13
2022-12-24T12:44:47.135Z,31.13
2022-12-24T12:47:35.999Z,28.17
2022-12-24T12:50:25.721Z,27.77
2022-12-24T12:53:27.484Z,27.10
2022-12-24T12:56:06.967Z,32.70
2022-12-24T12:59:02.812Z,32.07
2022-12-24T13:01:45.702Z,27.63
2022-12-24T13:04:48.395Z,32.43
2022-12-24T13:07:18.324Z,28.60
2022-12-24T13:09:59.976Z,28.87
2022-12-24T13:12:33.935Z,25.07
2022-12-24T13:15:26.822Z,30.23
2022-12-24T13:18:10.712Z,29.00
2022-12-24T13:20:42.858Z,30.60
2022-12-24T13:23:15.845Z,26.50
2022-12-24T13:25:48.339Z,21.87
2022-12-24T13:28:24.449Z,25.77
2022-12-24T13:31:25.761Z,27.57
2022-12-24T13:33:57.831Z,25.93
2022-12-24T13:36:25.392Z,27.90
2022-12-24T13:38:53.579Z,26.53
2022-12-24T13:41:40.688Z,26.43
2022-12-24T13:44:14.834Z,25.53
2022-12-24T13:47:05.282Z,27.70
2022-12-24T13:49:42.774Z,29.30
2022-12-24T13:52:12.551Z,23.43
2022-12-24T13:54:43.861Z,29.67
2022-12-24T13:57:36.783Z,28.60
2022-12-24T14:00:13.086Z,27.97
2022-12-24T14:02:49.103Z,30.93
2022-12-24T14:05:33.330Z,30.73
2022-12-24T14:08:04.304Z,33.03
2022-12-24T14:10:43.863Z,31.27
2022-12-24T14:13:49.694Z,31.63
2022-12-24T14:16:20.686Z,32.40
2022-12-24T14:19:03.234Z,31.53
2022-12-24T14:21:37.475Z,31.10
2022-12-24T14:24:13.447Z,28.07
2022-12-24T14:26:57.167Z,30.07
2022-12-24T14:29:35.942Z,31.07
2022-12-24T14:32:14.435Z,28.30
2022-12-24T14:34:41.727Z,29.57
2022-12-24T14:37:12.648Z,34.43
2022-12-24T14:39:44.168Z,35.40
2022-12-24T14:42:38.476Z,30.63
2022-12-24T14:45:34.115Z,32.63
2022-12-24T14:48:19.467Z,32.73
2022-12-24T14:51:01.424Z,33.33
2022-12-24T14:53:49.432Z,38.70
2022-12-24T14:56:20.992Z,40.63
2022-12-24T14:58:48.365Z,52.70
2022-12-24T15:01:20.357Z,61.97
2022-12-24T15:04:09.058Z,66.17
2022-12-24T15:06:52.693Z,58.60
2022-12-24T15:09:33.879Z,55.40
2022-12-24T15:12:04.531Z,55.67
2022-12-24T15:14:41.619Z,63.93
2022-12-24T15:17:11.543Z,46.27
2022-12-24T15:19:42.914Z,40.70
2022-12-24T15:22:15.403Z,53.47
2022-12-24T15:24:47.855Z,53.07
2022-12-24T15:27:21.335Z,44.27
2022-12-24T15:29:51.759Z,43.50
2022-12-24T15:32:21.091Z,50.40
2022-12-24T15:34:50.755Z,43.30
2022-12-24T15:37:19.811Z,38.90
2022-12-24T15:40:09.811Z,52.67
2022-12-24T15:42:41.504Z,56.63
2022-12-24T15:45:31.204Z,52.80
2022-12-24T15:48:08.360Z,52.07
2022-12-24T15:50:38.176Z,55.03
2022-12-24T15:53:20.197Z,47.47
2022-12-24T15:56:03.283Z,57.67
2022-12-24T15:58:36.046Z,58.03
2022-12-24T16:01:09.806Z,49.80
2022-12-24T16:03:42.284Z,56.90
2022-12-24T16:06:13.816Z,47.73
2022-12-24T16:08:42.566Z,52.70
2022-12-24T16:11:19.876Z,54.53
2022-12-24T16:13:55.978Z,57.20
2022-12-24T16:16:38.866Z,60.53
2022-12-24T16:19:08.430Z,62.77
2022-12-24T16:21:38.955Z,59.93
2022-12-24T16:24:06.386Z,56.17
2022-12-24T16:26:34.906Z,56.77
2022-12-24T16:29:02.467Z,61.27
2022-12-24T16:31:46.711Z,65.00
2022-12-24T16:34:15.589Z,62.63
2022-12-24T16:36:44.927Z,66.50
2022-12-24T16:39:26.716Z,61.33
2022-12-24T16:42:14.272Z,62.53
2022-12-24T16:44:42.173Z,58.50
2022-12-24T16:47:28.673Z,62.00
2022-12-24T16:49:57.508Z,58.73
2022-12-24T16:52:28.931Z,59.67
2022-12-24T16:54:57.084Z,51.50
2022-12-24T16:57:24.993Z,53.73
2022-12-24T16:59:52.629Z,59.97
2022-12-24T17:02:23.613Z,55.23
2022-12-24T17:04:51.011Z,57.40
2022-12-24T17:07:19.882Z,57.60
2022-12-24T17:09:46.844Z,66.27
2022-12-24T17:12:14.395Z,55.87
2022-12-24T17:14:42.504Z,58.37
2022-12-24T17:17:26.644Z,55.00
2022-12-24T17:19:54.446Z,57.10
2022-12-24T17:22:22.536Z,51.50
2022-12-24T17:24:49.848Z,61.20
2022-12-24T17:27:17.073Z,54.70
2022-12-24T17:29:44.054Z,51.80
2022-12-24T17:32:11.296Z,54.67
2022-12-24T17:34:39.163Z,46.80
2022-12-24T17:37:06.477Z,49.33
2022-12-24T17:39:33.568Z,47.17
2022-12-24T17:42:00.811Z,50.87
2022-12-24T17:44:27.761Z,47.87
2022-12-24T17:46:55.064Z,52.63
2022-12-24T17:49:22.259Z,55.40
2022-12-24T17:51:49.494Z,46.40
2022-12-24T17:54:16.576Z,51.13
2022-12-24T17:56:43.936Z,47.00
2022-12-24T17:59:11.000Z,55.40
2022-12-24T18:01:38.311Z,56.17
2022-12-24T18:04:05.693Z,52.60
2022-12-24T18:06:33.174Z,52.13
2022-12-24T18:09:00.365Z,48.70
2022-12-24T18:11:33.243Z,48.93
2022-12-24T18:14:02.298Z,54.43
2022-12-24T18:16:38.612Z,52.20
2022-12-24T18:19:08.403Z,49.90
2022-12-24T18:21:35.759Z,51.27
2022-12-24T18:24:03.123Z,47.17
2022-12-24T18:26:33.190Z,52.83
2022-12-24T18:29:04.366Z,51.97
2022-12-24T18:31:33.801Z,58.13
2022-12-24T18:34:02.747Z,57.33
2022-12-24T18:36:30.987Z,56.23
2022-12-24T18:38:58.046Z,55.80
2022-12-24T18:41:27.977Z,56.73
2022-12-24T18:43:56.783Z,54.30
2022-12-24T18:46:26.670Z,48.67
2022-12-24T18:48:55.453Z,47.70
2022-12-24T18:51:23.838Z,51.17
2022-12-24T18:53:51.527Z,49.70
2022-12-24T18:56:21.875Z,50.33
2022-12-24T18:58:49.518Z,47.60
2022-12-24T19:01:20.824Z,51.93
2022-12-24T19:03:49.337Z,51.97
2022-12-24T19:06:17.386Z,47.67
2022-12-24T19:09:01.495Z,46.17
2022-12-24T19:11:31.678Z,42.40
2022-12-24T19:13:59.550Z,52.37
2022-12-24T19:16:28.369Z,45.97
2022-12-24T19:18:55.814Z,48.37
2022-12-24T19:21:23.084Z,40.43
2022-12-24T19:23:50.434Z,47.70
2022-12-24T19:26:18.879Z,45.10
2022-12-24T19:28:46.491Z,42.17
2022-12-24T19:31:17.268Z,40.13
2022-12-24T19:33:55.259Z,43.27
2022-12-24T19:36:25.754Z,43.63
2022-12-24T19:38:52.745Z,50.73
2022-12-24T19:41:23.848Z,38.70
2022-12-24T19:43:52.844Z,48.30
2022-12-24T19:46:22.084Z,40.67
2022-12-24T19:48:54.654Z,44.37
2022-12-24T19:51:22.708Z,42.37
2022-12-24T19:53:50.287Z,41.27
2022-12-24T19:56:19.135Z,50.13
2022-12-24T19:58:47.721Z,41.80
2022-12-24T20:01:18.512Z,47.50
2022-12-24T20:03:47.068Z,45.07
2022-12-24T20:06:16.136Z,43.00
2022-12-24T20:08:43.954Z,43.13
2022-12-24T20:11:13.620Z,39.20
2022-12-24T20:13:41.342Z,36.80
2022-12-24T20:16:14.264Z,43.03
2022-12-24T20:18:41.596Z,48.97
2022-12-24T20:21:11.648Z,46.27
2022-12-24T20:23:40.132Z,39.93
2022-12-24T20:26:10.216Z,42.23
2022-12-24T20:28:37.384Z,40.17
2022-12-24T20:31:28.565Z,40.30
2022-12-24T20:33:59.911Z,42.50
2022-12-24T20:36:29.045Z,47.67
2022-12-24T20:38:56.545Z,46.23
2022-12-24T20:41:26.368Z,42.13
2022-12-24T20:43:53.545Z,44.23
2022-12-24T20:46:23.077Z,44.57
2022-12-24T20:48:51.071Z,42.70
2022-12-24T20:51:25.154Z,50.03
2022-12-24T20:53:58.062Z,46.33
2022-12-24T20:56:25.929Z,43.97
2022-12-24T20:58:52.884Z,51.50
2022-12-24T21:01:24.463Z,52.93
2022-12-24T21:03:55.985Z,48.43
2022-12-24T21:06:24.551Z,45.40
2022-12-24T21:08:53.156Z,40.00
2022-12-24T21:11:39.852Z,44.57
2022-12-24T21:14:06.937Z,43.37
2022-12-24T21:16:35.990Z,43.27
2022-12-24T21:19:04.943Z,47.67
2022-12-24T21:21:32.622Z,44.83
2022-12-24T21:23:59.921Z,44.03
2022-12-24T21:26:27.220Z,46.23
2022-12-24T21:28:54.696Z,49.13
2022-12-24T21:31:22.178Z,43.70
2022-12-24T21:33:49.305Z,48.43
2022-12-24T21:36:17.062Z,40.10
2022-12-24T21:38:44.180Z,46.37
2022-12-24T21:41:17.122Z,41.00
2022-12-24T21:43:45.252Z,45.87
2022-12-24T21:46:19.389Z,46.30
2022-12-24T21:49:05.102Z,43.87
2022-12-24T21:51:33.025Z,45.63
2022-12-24T21:54:18.561Z,41.13
2022-12-24T21:57:04.693Z,44.67
2022-12-24T21:59:31.655Z,48.63
2022-12-24T22:01:59.453Z,45.97
2022-12-24T22:04:27.540Z,42.73
2022-12-24T22:07:13.601Z,43.33
2022-12-24T22:09:59.249Z,49.67
2022-12-24T22:12:30.342Z,48.47
2022-12-24T22:14:57.332Z,44.63
2022-12-24T22:17:25.667Z,44.67
2022-12-24T22:19:54.410Z,41.33
2022-12-24T22:22:22.198Z,43.77
2022-12-24T22:24:49.355Z,47.83
2022-12-24T22:27:16.689Z,46.33
2022-12-24T22:29:43.637Z,45.27
2022-12-24T22:32:10.989Z,57.03
2022-12-24T22:34:37.994Z,52.00
2022-12-24T22:37:05.226Z,45.23
2022-12-24T22:39:32.301Z,48.27
2022-12-24T22:41:59.647Z,48.87
2022-12-24T22:44:26.689Z,47.33
2022-12-24T22:46:53.932Z,51.50
2022-12-24T22:49:21.002Z,47.50
2022-12-24T22:51:48.268Z,49.47
2022-12-24T22:54:16.001Z,51.33
2022-12-24T22:56:43.518Z,49.13
2022-12-24T22:59:13.898Z,53.13
2022-12-24T23:01:43.733Z,58.07
2022-12-24T23:04:12.083Z,52.70
2022-12-24T23:06:40.008Z,44.67
2022-12-24T23:09:09.026Z,50.37
2022-12-24T23:11:36.512Z,49.93
2022-12-24T23:14:21.943Z,46.70
2022-12-24T23:16:49.195Z,50.90
2022-12-24T23:19:16.224Z,54.40
2022-12-24T23:21:43.503Z,50.03
2022-12-24T23:24:11.247Z,56.33
2022-12-24T23:26:38.771Z,51.03
2022-12-24T23:29:06.719Z,48.27
2022-12-24T23:31:35.011Z,56.77
2022-12-24T23:34:02.205Z,51.97
2022-12-24T23:36:29.641Z,52.30
2022-12-24T23:38:57.615Z,49.77
2022-12-24T23:41:25.274Z,55.40
2022-12-24T23:43:52.357Z,52.33
2022-12-24T23:46:20.581Z,49.40
2022-12-24T23:48:48.171Z,57.40
2022-12-24T23:51:19.095Z,51.33
2022-12-24T23:53:46.494Z,53.93
2022-12-24T23:56:13.952Z,50.30
2022-12-24T23:58:41.979Z,52.23
